UAE6K VRMM-OMDB
Flight info
| Callsign | UAE6K |
|---|---|
| Flight time | N/A |
| Altitude | 36000 |
| Route | ELBET1B ELBET L894 ESMIT/N0484F380 L894 KITAL P570 ITURA M762 VAXAS/N0419F240 M762 MIVEK P574 IMPED |
| Aircraft | B77W/H-SDE2E3GHIJ1J3J4J5M1P2RWXYZ/LB1D1 |
Departure
| Time | 2026-05-04 04:54 |
|---|---|
| Airport | Velana International Airport (VRMM) |
Arrival
| Time | N/A |
|---|---|
| Airport | Dubai International Airport (OMDB) |
| Time | Latitude | Longitude | Altitude | Speed | Heading |
|---|---|---|---|---|---|
| 2026-05-04 04:11 | 4.18455 | 73.52792 | 17 ft | 0 kts | 269° |
| 2026-05-04 04:47 | 4.18544 | 73.52848 | 17 ft | 4 kts | 19° |
| 2026-05-04 04:47 | 4.18569 | 73.52856 | 17 ft | 5 kts | 15° |
| 2026-05-04 04:47 | 4.18603 | 73.52887 | 17 ft | 7 kts | 76° |
| 2026-05-04 04:47 | 4.18651 | 73.52923 | 17 ft | 11 kts | 359° |
| 2026-05-04 04:48 | 4.18752 | 73.52921 | 17 ft | 17 kts | 359° |
| 2026-05-04 04:49 | 4.19013 | 73.53061 | 17 ft | 12 kts | 71° |
| 2026-05-04 04:49 | 4.19121 | 73.53101 | 17 ft | 25 kts | 359° |
| 2026-05-04 04:49 | 4.19386 | 73.53101 | 17 ft | 50 kts | 359° |
| 2026-05-04 04:49 | 4.19773 | 73.53100 | 17 ft | 54 kts | 0° |
| 2026-05-04 04:50 | 4.20139 | 73.53094 | 17 ft | 50 kts | 358° |
| 2026-05-04 04:50 | 4.20477 | 73.53099 | 17 ft | 47 kts | 1° |
| 2026-05-04 04:50 | 4.20800 | 73.53101 | 17 ft | 44 kts | 360° |
| 2026-05-04 04:50 | 4.21076 | 73.53100 | 17 ft | 33 kts | 0° |
| 2026-05-04 04:51 | 4.21229 | 73.53090 | 17 ft | 10 kts | 320° |
| 2026-05-04 04:51 | 4.21249 | 73.53043 | 17 ft | 3 kts | 262° |
| 2026-05-04 04:51 | 4.21242 | 73.53025 | 17 ft | 5 kts | 236° |
| 2026-05-04 04:51 | 4.21185 | 73.52991 | 17 ft | 13 kts | 198° |
| 2026-05-04 04:52 | 4.21070 | 73.52958 | 17 ft | 19 kts | 195° |
| 2026-05-04 04:52 | 4.20974 | 73.52943 | 17 ft | 11 kts | 165° |
| 2026-05-04 04:52 | 4.20937 | 73.53007 | 17 ft | 13 kts | 91° |
| 2026-05-04 04:52 | 4.20936 | 73.53077 | 17 ft | 6 kts | 97° |
| 2026-05-04 04:53 | 4.20899 | 73.53100 | 17 ft | 0 kts | 179° |
| 2026-05-04 04:53 | 4.20877 | 73.53100 | 17 ft | 16 kts | 180° |
| 2026-05-04 04:54 | 4.20466 | 73.53098 | 18 ft | 100 kts | 180° |
| 2026-05-04 04:54 | 4.19515 | 73.53104 | 109 ft | 162 kts | 185° |
| 2026-05-04 04:54 | 4.18322 | 73.53153 | 775 ft | 180 kts | 181° |
| 2026-05-04 04:54 | 4.17028 | 73.53155 | 1680 ft | 193 kts | 184° |
| 2026-05-04 04:55 | 4.15655 | 73.53110 | 2532 ft | 211 kts | 182° |
| 2026-05-04 04:55 | 4.14145 | 73.53101 | 3513 ft | 227 kts | 181° |
| 2026-05-04 04:55 | 4.12513 | 73.53103 | 4495 ft | 244 kts | 181° |
| 2026-05-04 04:55 | 4.10789 | 73.53105 | 5501 ft | 260 kts | 181° |
| 2026-05-04 04:56 | 4.08923 | 73.53106 | 6488 ft | 277 kts | 181° |
| 2026-05-04 04:56 | 4.06977 | 73.53107 | 7627 ft | 287 kts | 181° |
| 2026-05-04 04:56 | 4.04964 | 73.53108 | 8766 ft | 295 kts | 181° |
| 2026-05-04 04:56 | 4.02891 | 73.53109 | 9866 ft | 303 kts | 180° |
| 2026-05-04 04:57 | 4.00806 | 73.52928 | 10899 ft | 312 kts | 191° |
| 2026-05-04 04:57 | 3.98660 | 73.52288 | 11749 ft | 328 kts | 204° |
| 2026-05-04 04:57 | 3.96592 | 73.51204 | 12563 ft | 344 kts | 211° |
| 2026-05-04 04:57 | 3.94494 | 73.49934 | 13371 ft | 361 kts | 212° |
| 2026-05-04 04:58 | 3.92313 | 73.48598 | 14260 ft | 374 kts | 212° |
| 2026-05-04 04:58 | 3.90075 | 73.47230 | 15146 ft | 386 kts | 212° |
| 2026-05-04 04:58 | 3.87866 | 73.45628 | 15965 ft | 398 kts | 223° |
| 2026-05-04 04:58 | 3.85960 | 73.43565 | 16748 ft | 409 kts | 234° |
| 2026-05-04 04:59 | 3.84500 | 73.41113 | 17647 ft | 415 kts | 246° |
| 2026-05-04 04:59 | 3.83582 | 73.38402 | 18610 ft | 418 kts | 258° |
| 2026-05-04 04:59 | 3.83243 | 73.35516 | 19560 ft | 421 kts | 270° |
| 2026-05-04 04:59 | 3.83513 | 73.32587 | 20382 ft | 427 kts | 282° |
| 2026-05-04 05:00 | 3.84397 | 73.29778 | 21148 ft | 433 kts | 294° |
| 2026-05-04 05:00 | 3.85921 | 73.27138 | 21930 ft | 438 kts | 307° |
| 2026-05-04 05:00 | 3.90393 | 73.22997 | 23385 ft | 450 kts | 327° |
| 2026-05-04 05:01 | 3.93114 | 73.21348 | 24135 ft | 454 kts | 329° |
| 2026-05-04 05:01 | 3.95826 | 73.19760 | 24789 ft | 459 kts | 330° |
| 2026-05-04 05:01 | 3.98623 | 73.18125 | 25340 ft | 466 kts | 330° |
| 2026-05-04 05:01 | 4.01422 | 73.16490 | 25878 ft | 472 kts | 330° |
| 2026-05-04 05:02 | 4.04293 | 73.14812 | 26457 ft | 476 kts | 330° |
| 2026-05-04 05:02 | 4.07182 | 73.13123 | 27004 ft | 480 kts | 330° |
| 2026-05-04 05:02 | 4.10058 | 73.11443 | 27433 ft | 486 kts | 330° |
| 2026-05-04 05:02 | 4.13030 | 73.09705 | 27850 ft | 492 kts | 330° |
| 2026-05-04 05:03 | 4.15971 | 73.07986 | 28308 ft | 496 kts | 330° |
| 2026-05-04 05:03 | 4.18986 | 73.06223 | 28777 ft | 500 kts | 330° |
| 2026-05-04 05:04 | 4.28042 | 73.00928 | 30452 ft | 500 kts | 330° |
| 2026-05-04 05:04 | 4.31016 | 72.99188 | 31145 ft | 497 kts | 331° |
| 2026-05-04 05:04 | 4.34008 | 72.97437 | 31751 ft | 494 kts | 331° |
| 2026-05-04 05:06 | 4.54700 | 72.85331 | 35599 ft | 486 kts | 330° |
| 2026-05-04 05:06 | 4.57636 | 72.83613 | 35932 ft | 488 kts | 330° |
| 2026-05-04 05:07 | 4.63588 | 72.80129 | 35932 ft | 504 kts | 330° |
| 2026-05-04 05:07 | 4.69792 | 72.76498 | 35933 ft | 519 kts | 330° |
| 2026-05-04 05:09 | 4.95403 | 72.61498 | 35924 ft | 531 kts | 330° |
| 2026-05-04 05:09 | 4.98599 | 72.59624 | 35924 ft | 531 kts | 330° |
| 2026-05-04 05:10 | 5.04985 | 72.55881 | 35922 ft | 532 kts | 330° |
| 2026-05-04 05:10 | 5.11369 | 72.52138 | 35919 ft | 533 kts | 330° |
| 2026-05-04 05:11 | 5.17781 | 72.48378 | 35919 ft | 533 kts | 330° |
| 2026-05-04 05:11 | 5.24222 | 72.44600 | 35925 ft | 532 kts | 330° |
| 2026-05-04 05:12 | 5.30629 | 72.40842 | 35918 ft | 533 kts | 330° |
| 2026-05-04 05:12 | 5.37013 | 72.37095 | 35921 ft | 533 kts | 330° |
| 2026-05-04 05:13 | 5.43426 | 72.33331 | 35917 ft | 533 kts | 330° |
| 2026-05-04 05:13 | 5.49836 | 72.29568 | 35913 ft | 533 kts | 330° |
| 2026-05-04 05:14 | 5.56264 | 72.25794 | 35916 ft | 533 kts | 330° |
| 2026-05-04 05:14 | 5.62648 | 72.22045 | 35916 ft | 533 kts | 330° |
| 2026-05-04 05:15 | 5.69057 | 72.18279 | 35921 ft | 533 kts | 330° |
| 2026-05-04 05:15 | 5.75476 | 72.14508 | 35926 ft | 533 kts | 330° |
| 2026-05-04 05:16 | 5.81899 | 72.10734 | 35930 ft | 533 kts | 330° |
| 2026-05-04 05:16 | 5.88228 | 72.07014 | 35928 ft | 513 kts | 330° |
| 2026-05-04 05:17 | 5.91254 | 72.05235 | 35925 ft | 497 kts | 330° |
| 2026-05-04 05:17 | 5.94256 | 72.03595 | 35928 ft | 485 kts | 335° |
| 2026-05-04 05:17 | 6.00422 | 72.00709 | 35931 ft | 491 kts | 336° |
| 2026-05-04 05:18 | 6.06579 | 71.97817 | 35931 ft | 489 kts | 336° |
| 2026-05-04 05:18 | 6.12773 | 71.94886 | 35929 ft | 490 kts | 335° |
| 2026-05-04 05:19 | 6.18917 | 71.91966 | 35928 ft | 489 kts | 335° |
| 2026-05-04 05:19 | 6.25071 | 71.89035 | 35926 ft | 489 kts | 335° |
| 2026-05-04 05:20 | 6.31253 | 71.86086 | 35926 ft | 489 kts | 335° |
| 2026-05-04 05:20 | 6.37322 | 71.82979 | 35919 ft | 489 kts | 327° |
| 2026-05-04 05:21 | 6.42783 | 71.78855 | 35919 ft | 491 kts | 322° |
| 2026-05-04 05:21 | 6.48175 | 71.74629 | 35918 ft | 489 kts | 322° |
| 2026-05-04 05:22 | 6.53577 | 71.70396 | 35914 ft | 490 kts | 322° |
| 2026-05-04 05:22 | 6.58968 | 71.66170 | 35911 ft | 490 kts | 322° |
| 2026-05-04 05:23 | 6.64334 | 71.61964 | 35911 ft | 490 kts | 322° |
| 2026-05-04 05:23 | 6.69709 | 71.57752 | 35910 ft | 490 kts | 322° |
| 2026-05-04 05:24 | 6.75099 | 71.53526 | 35911 ft | 488 kts | 322° |
| 2026-05-04 05:24 | 6.80463 | 71.49318 | 35911 ft | 488 kts | 322° |
| 2026-05-04 05:25 | 6.85810 | 71.45123 | 35911 ft | 489 kts | 322° |
| 2026-05-04 05:25 | 6.91194 | 71.40898 | 35912 ft | 488 kts | 322° |
| 2026-05-04 05:26 | 6.96539 | 71.36703 | 35911 ft | 489 kts | 322° |
| 2026-05-04 05:26 | 7.01905 | 71.32489 | 35909 ft | 488 kts | 322° |
| 2026-05-04 05:28 | 7.23381 | 71.15613 | 35908 ft | 487 kts | 322° |
| 2026-05-04 05:29 | 7.28698 | 71.11431 | 35909 ft | 487 kts | 322° |
| 2026-05-04 05:29 | 7.34051 | 71.07220 | 35909 ft | 487 kts | 322° |
| 2026-05-04 05:31 | 7.55466 | 70.90357 | 35910 ft | 488 kts | 322° |
| 2026-05-04 05:32 | 7.60788 | 70.86158 | 35911 ft | 487 kts | 322° |
| 2026-05-04 05:33 | 7.68784 | 70.79848 | 35910 ft | 486 kts | 322° |
| 2026-05-04 05:33 | 7.74121 | 70.75634 | 35909 ft | 487 kts | 322° |
| 2026-05-04 05:34 | 7.79472 | 70.71408 | 35912 ft | 486 kts | 322° |
| 2026-05-04 05:34 | 7.84835 | 70.67171 | 35913 ft | 486 kts | 322° |
| 2026-05-04 05:35 | 7.90146 | 70.62974 | 35914 ft | 486 kts | 322° |
| 2026-05-04 05:35 | 7.95498 | 70.58742 | 35926 ft | 486 kts | 322° |
| 2026-05-04 05:36 | 8.00818 | 70.54535 | 35931 ft | 486 kts | 322° |
| 2026-05-04 05:36 | 8.06146 | 70.50320 | 35930 ft | 485 kts | 322° |
| 2026-05-04 05:37 | 8.11467 | 70.46109 | 35931 ft | 484 kts | 322° |
| 2026-05-04 05:37 | 8.16773 | 70.41909 | 35929 ft | 485 kts | 322° |
| 2026-05-04 05:38 | 8.24755 | 70.35587 | 35930 ft | 485 kts | 322° |
| 2026-05-04 05:38 | 8.30042 | 70.31398 | 35928 ft | 483 kts | 321° |
| 2026-05-04 05:39 | 8.38031 | 70.25066 | 35930 ft | 484 kts | 321° |
| 2026-05-04 05:40 | 8.46015 | 70.18733 | 35929 ft | 484 kts | 321° |
| 2026-05-04 05:40 | 8.51311 | 70.14531 | 35931 ft | 484 kts | 321° |
| 2026-05-04 05:41 | 8.56612 | 70.10323 | 35930 ft | 483 kts | 321° |
| 2026-05-04 05:41 | 8.61900 | 70.06123 | 35928 ft | 482 kts | 321° |
| 2026-05-04 05:42 | 8.67168 | 70.01939 | 35930 ft | 482 kts | 321° |
| 2026-05-04 05:42 | 8.72460 | 69.97735 | 35929 ft | 481 kts | 321° |
| 2026-05-04 05:43 | 8.77727 | 69.93547 | 35929 ft | 481 kts | 321° |
| 2026-05-04 05:45 | 8.98751 | 69.76820 | 35923 ft | 480 kts | 321° |
| 2026-05-04 05:47 | 9.19711 | 69.60117 | 35918 ft | 476 kts | 321° |
| 2026-05-04 05:47 | 9.24954 | 69.55934 | 35916 ft | 478 kts | 321° |
| 2026-05-04 05:48 | 9.30170 | 69.51772 | 35912 ft | 478 kts | 321° |
| 2026-05-04 05:48 | 9.35379 | 69.47614 | 35909 ft | 479 kts | 321° |
| 2026-05-04 05:49 | 9.40594 | 69.43449 | 35908 ft | 475 kts | 321° |
| 2026-05-04 05:49 | 9.45809 | 69.39283 | 35908 ft | 477 kts | 322° |
| 2026-05-04 05:51 | 9.66566 | 69.22684 | 35909 ft | 475 kts | 321° |
| 2026-05-04 05:52 | 9.71761 | 69.18526 | 35908 ft | 475 kts | 321° |
| 2026-05-04 05:52 | 9.76980 | 69.14344 | 35910 ft | 474 kts | 321° |
| 2026-05-04 05:54 | 9.97693 | 68.97723 | 35927 ft | 473 kts | 321° |
| 2026-05-04 05:55 | 10.02846 | 68.93584 | 35928 ft | 473 kts | 321° |
| 2026-05-04 05:55 | 10.08028 | 68.89420 | 35932 ft | 474 kts | 321° |
| 2026-05-04 05:56 | 10.12351 | 68.85944 | 35931 ft | 473 kts | 321° |
| 2026-05-04 05:56 | 10.18346 | 68.81123 | 35934 ft | 473 kts | 321° |
| 2026-05-04 05:57 | 10.23529 | 68.76952 | 35935 ft | 473 kts | 322° |
| 2026-05-04 05:57 | 10.28669 | 68.72815 | 35928 ft | 472 kts | 322° |
| 2026-05-04 05:58 | 10.33856 | 68.68638 | 35929 ft | 473 kts | 321° |
| 2026-05-04 05:58 | 10.39023 | 68.64475 | 35933 ft | 473 kts | 321° |
| 2026-05-04 05:59 | 10.44171 | 68.60326 | 35930 ft | 473 kts | 322° |
| 2026-05-04 05:59 | 10.49347 | 68.56152 | 35928 ft | 473 kts | 322° |
| 2026-05-04 06:00 | 10.54486 | 68.52007 | 35929 ft | 473 kts | 322° |
| 2026-05-04 06:00 | 10.59648 | 68.47840 | 35932 ft | 473 kts | 322° |
| 2026-05-04 06:01 | 10.63941 | 68.44375 | 35931 ft | 473 kts | 322° |
| 2026-05-04 06:03 | 10.85451 | 68.26987 | 35930 ft | 472 kts | 321° |
| 2026-05-04 06:05 | 11.08653 | 68.08197 | 35931 ft | 473 kts | 321° |
| 2026-05-04 06:06 | 11.12946 | 68.04716 | 35930 ft | 473 kts | 321° |
| 2026-05-04 06:06 | 11.18973 | 67.99827 | 35931 ft | 474 kts | 321° |
| 2026-05-04 06:07 | 11.24101 | 67.95664 | 35931 ft | 473 kts | 321° |
| 2026-05-04 06:07 | 11.29262 | 67.91473 | 35930 ft | 473 kts | 321° |
| 2026-05-04 06:08 | 11.34409 | 67.87291 | 35930 ft | 473 kts | 322° |
| 2026-05-04 06:08 | 11.39584 | 67.83086 | 35931 ft | 473 kts | 322° |
| 2026-05-04 06:09 | 11.44705 | 67.78922 | 35931 ft | 473 kts | 322° |
| 2026-05-04 06:11 | 11.65316 | 67.62140 | 35925 ft | 473 kts | 322° |
| 2026-05-04 06:13 | 11.85915 | 67.45335 | 35908 ft | 473 kts | 322° |
| 2026-05-04 06:14 | 12.03959 | 67.30589 | 35908 ft | 473 kts | 322° |
| 2026-05-04 06:15 | 12.09127 | 67.26363 | 35909 ft | 474 kts | 322° |
| 2026-05-04 06:15 | 12.14251 | 67.22169 | 35909 ft | 474 kts | 322° |
| 2026-05-04 06:16 | 12.19410 | 67.17945 | 35910 ft | 474 kts | 322° |
| 2026-05-04 06:16 | 12.24585 | 67.13706 | 35909 ft | 474 kts | 322° |
| 2026-05-04 06:17 | 12.29724 | 67.09494 | 35911 ft | 474 kts | 322° |
| 2026-05-04 06:17 | 12.34886 | 67.05260 | 35909 ft | 473 kts | 322° |
| 2026-05-04 06:18 | 12.40052 | 67.01022 | 35917 ft | 475 kts | 322° |
| 2026-05-04 06:20 | 12.60648 | 66.84101 | 35920 ft | 473 kts | 322° |
| 2026-05-04 06:21 | 12.73520 | 66.73508 | 35915 ft | 474 kts | 322° |
| 2026-05-04 06:22 | 12.78666 | 66.69268 | 35915 ft | 475 kts | 322° |
| 2026-05-04 06:25 | 13.14702 | 66.39520 | 35911 ft | 475 kts | 322° |
| 2026-05-04 06:26 | 13.19845 | 66.35264 | 35908 ft | 475 kts | 322° |
| 2026-05-04 06:26 | 13.25017 | 66.30983 | 35898 ft | 474 kts | 322° |
| 2026-05-04 06:27 | 13.37873 | 66.20329 | 35901 ft | 475 kts | 322° |
| 2026-05-04 06:28 | 13.43004 | 66.16074 | 35900 ft | 475 kts | 322° |
| 2026-05-04 06:28 | 13.48163 | 66.11792 | 35901 ft | 475 kts | 322° |
| 2026-05-04 06:29 | 13.53294 | 66.07532 | 35898 ft | 474 kts | 322° |
| 2026-05-04 06:29 | 13.58455 | 66.03243 | 35898 ft | 474 kts | 322° |
| 2026-05-04 06:30 | 13.63553 | 65.99004 | 35896 ft | 474 kts | 322° |
| 2026-05-04 06:30 | 13.68710 | 65.94714 | 35895 ft | 474 kts | 322° |
| 2026-05-04 06:31 | 13.73849 | 65.90437 | 35894 ft | 474 kts | 322° |
| 2026-05-04 06:31 | 13.78979 | 65.86166 | 35894 ft | 475 kts | 322° |
| 2026-05-04 06:33 | 13.99517 | 65.69036 | 35891 ft | 475 kts | 322° |
| 2026-05-04 06:34 | 14.04630 | 65.64765 | 35889 ft | 474 kts | 322° |
| 2026-05-04 06:34 | 14.09778 | 65.60463 | 35887 ft | 475 kts | 322° |
| 2026-05-04 06:36 | 14.30262 | 65.43317 | 35889 ft | 474 kts | 322° |
| 2026-05-04 06:37 | 14.35358 | 65.39046 | 35889 ft | 474 kts | 322° |
| 2026-05-04 06:37 | 14.40512 | 65.34723 | 35888 ft | 475 kts | 322° |
| 2026-05-04 06:38 | 14.45613 | 65.30441 | 35890 ft | 475 kts | 322° |
| 2026-05-04 06:40 | 14.66155 | 65.13170 | 35887 ft | 475 kts | 322° |
| 2026-05-04 06:40 | 14.71274 | 65.08858 | 35889 ft | 475 kts | 322° |
| 2026-05-04 06:41 | 14.76461 | 65.04485 | 35878 ft | 475 kts | 322° |
| 2026-05-04 06:41 | 14.81584 | 65.00164 | 35870 ft | 476 kts | 322° |
| 2026-05-04 06:42 | 14.86743 | 64.95810 | 35870 ft | 475 kts | 322° |